Decoded Metar for YSRI (RICHMOND in AUSTRALIA) (IATA:RCM) | Meteo·Mobile Aviation Weather
aviador You're here:

YSRI Decoded Metar

RICHMOND in AUSTRALIA
Report Time2019-05-21 15:30:00
UTC Time2019-05-21 15:54:46
Flight Rules vfr VFR
WindCalm
Visibility9999 m
Phenomena:N/A
Clouds:N/A
CeilingNone
Temp11°C (ISA -4)
Dew Point11°C (100% RH)
QNH1025 hPa
Density Alt-623 ft
Elevation69 ft
Report Wrong Elevation
Raw Report
YSRI 211530Z AUTO 00000KT 9999 // NCD 11/11 Q1025 RF00.0/000.0=

Extra information for YSRI:More info

Metar Taf Metar & Taf Last 4 Metars F.Rules Stats Wind Profile Meteogram Temp Stats Airport Information Weather charts Add Link Nearby VenuesMetar ALERT Operation Metar Decoded Social comments